Time;durP1;ratioP1;P1;durP2;ratioP2;P2;SDS_P1;SDS_P2;PMS_P1;PMS_P2;Temp;Humidity;BMP_temperature;BMP_pressure;BME280_temperature;BME280_humidity;BME280_pressure;Samples;Min_cycle;Max_cycle;Signal;HPM_P1;HPM_P2
2023/09/04 00:00:42;;;;;;;13.98;6.28;;;11.40;96.70;;;;;;5063101;28;20492;-72
2023/09/04 00:03:08;;;;;;;10.30;6.50;;;11.30;96.60;;;;;;5066892;28;20043;-72
2023/09/04 00:05:34;;;;;;;11.60;6.15;;;11.30;96.20;;;;;;5058602;28;20505;-72
2023/09/04 00:07:59;;;;;;;9.70;6.90;;;11.20;95.70;;;;;;5063476;28;20033;-72
2023/09/04 00:10:25;;;;;;;8.70;6.22;;;11.20;96.10;;;;;;5068489;28;20040;-71
2023/09/04 00:12:51;;;;;;;9.18;6.80;;;11.20;96.20;;;;;;5068258;28;20029;-71
2023/09/04 00:15:16;;;;;;;7.90;5.78;;;11.20;96.40;;;;;;5066669;28;20040;-72
2023/09/04 00:17:42;;;;;;;11.95;6.03;;;11.20;96.40;;;;;;5068118;28;20020;-71
2023/09/04 00:20:08;;;;;;;10.00;6.07;;;11.20;96.50;;;;;;5065782;28;20036;-72
2023/09/04 00:22:34;;;;;;;10.95;7.43;;;11.10;96.60;;;;;;5071168;28;20024;-73
2023/09/04 00:24:59;;;;;;;11.32;6.72;;;11.10;96.50;;;;;;5070721;28;20044;-72
2023/09/04 00:27:26;;;;;;;10.80;6.82;;;11.10;96.40;;;;;;5072720;28;20115;-72
2023/09/04 00:29:51;;;;;;;11.68;7.75;;;11.10;96.50;;;;;;5071156;28;20056;-72
2023/09/04 00:32:17;;;;;;;11.23;7.25;;;11.00;96.50;;;;;;5066094;28;20109;-72
2023/09/04 00:34:43;;;;;;;11.80;7.80;;;11.00;96.60;;;;;;5069754;28;20104;-72
2023/09/04 00:37:09;;;;;;;10.55;7.78;;;11.00;96.60;;;;;;5066186;28;20028;-73
2023/09/04 00:39:35;;;;;;;13.07;7.95;;;11.00;96.80;;;;;;5067620;28;20024;-72
2023/09/04 00:42:01;;;;;;;10.88;8.15;;;11.00;97.00;;;;;;5070589;28;20074;-74
2023/09/04 00:44:26;;;;;;;18.08;9.55;;;11.00;97.10;;;;;;5065754;28;20040;-73
2023/09/04 00:46:52;;;;;;;13.68;7.88;;;11.00;97.00;;;;;;5070265;28;20036;-72
2023/09/04 00:49:18;;;;;;;13.93;9.45;;;11.00;97.20;;;;;;5067819;28;20389;-73
2023/09/04 00:51:43;;;;;;;15.20;9.40;;;11.00;97.20;;;;;;5069193;28;20020;-72
2023/09/04 00:54:10;;;;;;;14.15;8.93;;;11.00;97.50;;;;;;5065382;28;20528;-72
2023/09/04 00:56:36;;;;;;;13.65;8.88;;;11.00;97.70;;;;;;5072530;28;20032;-72
2023/09/04 00:59:01;;;;;;;11.07;8.18;;;10.90;97.60;;;;;;5072461;28;20024;-72
2023/09/04 01:01:28;;;;;;;10.70;7.63;;;10.90;97.50;;;;;;5066533;28;20032;-73
2023/09/04 01:03:53;;;;;;;12.48;7.72;;;10.90;97.40;;;;;;5066025;28;20024;-72
2023/09/04 01:06:19;;;;;;;11.07;7.93;;;10.80;97.10;;;;;;5069383;28;20105;-72
2023/09/04 01:08:44;;;;;;;14.73;8.55;;;10.80;96.90;;;;;;5071085;28;20044;-72
2023/09/04 01:11:24;;;;;;;12.63;8.32;;;10.70;96.90;;;;;;5070577;28;20040;-71
2023/09/04 01:13:52;;;;;;;12.77;8.18;;;10.80;97.10;;;;;;5070236;28;20606;-71
2023/09/04 01:16:19;;;;;;;12.43;8.05;;;10.70;97.00;;;;;;5065970;28;20124;-72
2023/09/04 01:18:44;;;;;;;12.35;8.50;;;10.70;96.80;;;;;;5069772;28;20117;-72
2023/09/04 01:21:10;;;;;;;13.48;9.02;;;10.70;96.60;;;;;;5065514;28;20108;-72
2023/09/04 01:23:35;;;;;;;11.43;8.68;;;10.60;96.60;;;;;;5070921;28;20024;-71
2023/09/04 01:26:11;;;;;;;15.10;10.00;;;10.70;96.90;;;;;;5069721;28;20045;-73
2023/09/04 01:28:50;;;;;;;17.73;10.25;;;10.70;96.80;;;;;;5069020;28;20032;-72
2023/09/04 01:31:29;;;;;;;12.93;9.73;;;10.70;97.10;;;;;;5067814;28;20033;-73
2023/09/04 01:34:08;;;;;;;17.90;11.23;;;10.70;97.30;;;;;;5065728;28;20032;-71
2023/09/04 01:36:35;;;;;;;17.35;10.82;;;10.70;97.30;;;;;;5065379;28;20102;-72
2023/09/04 01:39:02;;;;;;;15.50;10.82;;;10.70;97.30;;;;;;5069373;28;20415;-72
2023/09/04 01:41:27;;;;;;;19.48;10.13;;;10.70;97.40;;;;;;5067577;28;20031;-72
2023/09/04 01:43:53;;;;;;;15.07;10.65;;;10.70;97.50;;;;;;5064487;28;20629;-71
2023/09/04 01:46:19;;;;;;;15.57;10.55;;;10.70;97.50;;;;;;5070112;28;20032;-72
2023/09/04 01:48:47;;;;;;;18.02;10.73;;;10.70;97.40;;;;;;5064588;28;20472;-73
2023/09/04 01:51:12;;;;;;;15.95;10.35;;;10.70;97.50;;;;;;5070556;28;20552;-72
2023/09/04 01:53:38;;;;;;;17.45;10.15;;;10.70;97.60;;;;;;5071552;28;20112;-71
2023/09/04 01:56:03;;;;;;;16.58;10.43;;;10.60;97.50;;;;;;5072930;28;20086;-71
2023/09/04 01:58:29;;;;;;;17.63;10.00;;;10.60;97.30;;;;;;5070948;28;20392;-72
2023/09/04 02:00:54;;;;;;;16.00;10.40;;;10.60;97.20;;;;;;5070750;28;20063;-73
2023/09/04 02:03:20;;;;;;;15.65;10.73;;;10.50;97.20;;;;;;5069335;28;20407;-72
2023/09/04 02:05:45;;;;;;;18.23;10.52;;;10.50;97.20;;;;;;5069834;28;20036;-72
2023/09/04 02:08:11;;;;;;;14.63;9.75;;;10.50;97.20;;;;;;5070768;28;20516;-72
2023/09/04 02:10:37;;;;;;;17.70;11.07;;;10.50;97.30;;;;;;5071978;28;20032;-72
2023/09/04 02:13:03;;;;;;;17.48;10.73;;;10.50;97.40;;;;;;5071118;28;20068;-72
2023/09/04 02:15:30;;;;;;;16.35;10.88;;;10.50;97.60;;;;;;5069976;28;20025;-72
2023/09/04 02:17:55;;;;;;;17.80;11.43;;;10.50;97.70;;;;;;5064988;28;20639;-71
2023/09/04 02:20:21;;;;;;;18.58;11.85;;;10.50;97.50;;;;;;5067385;28;20110;-72
2023/09/04 02:22:47;;;;;;;19.63;11.95;;;10.50;97.80;;;;;;5069182;28;20109;-73
2023/09/04 02:25:13;;;;;;;19.55;12.32;;;10.50;97.80;;;;;;5063131;28;20068;-72
2023/09/04 02:27:38;;;;;;;17.85;11.95;;;10.50;98.10;;;;;;5071593;28;20036;-72
2023/09/04 02:30:07;;;;;;;17.80;10.88;;;10.50;98.00;;;;;;5067640;28;20098;-73
2023/09/04 02:32:33;;;;;;;21.55;12.48;;;10.50;98.10;;;;;;5066617;28;20074;-72
2023/09/04 02:34:59;;;;;;;19.58;12.50;;;10.40;98.00;;;;;;5066054;28;20531;-72
2023/09/04 02:37:26;;;;;;;18.73;12.18;;;10.30;98.00;;;;;;5065860;28;20037;-72
2023/09/04 02:39:51;;;;;;;20.05;13.27;;;10.30;98.00;;;;;;5063031;28;20086;-72
2023/09/04 02:42:16;;;;;;;19.17;13.20;;;10.30;98.00;;;;;;5065276;28;20057;-73
2023/09/04 02:44:42;;;;;;;19.70;12.93;;;10.30;98.00;;;;;;5067696;28;20036;-72
2023/09/04 02:47:07;;;;;;;20.95;12.27;;;10.40;98.10;;;;;;5063907;28;20040;-73
2023/09/04 02:49:33;;;;;;;20.80;13.15;;;10.30;98.10;;;;;;5067702;28;20036;-72
2023/09/04 02:51:58;;;;;;;21.10;12.98;;;10.30;98.10;;;;;;5069781;28;20069;-72
2023/09/04 02:54:24;;;;;;;18.63;11.85;;;10.20;98.00;;;;;;5068457;28;21026;-72
2023/09/04 02:56:49;;;;;;;22.55;13.02;;;10.20;98.10;;;;;;5069827;28;20085;-72
2023/09/04 02:59:15;;;;;;;21.85;13.68;;;10.20;97.90;;;;;;5065490;28;20028;-71
2023/09/04 03:01:40;;;;;;;18.98;13.00;;;10.10;97.70;;;;;;5067567;28;20033;-72
2023/09/04 03:04:06;;;;;;;20.10;12.95;;;10.10;97.90;;;;;;5069599;28;20431;-72
2023/09/04 03:06:33;;;;;;;20.90;12.57;;;10.10;97.90;;;;;;5067344;28;20038;-71
2023/09/04 03:08:58;;;;;;;25.38;13.50;;;10.10;98.00;;;;;;5067569;28;20084;-71
2023/09/04 03:11:24;;;;;;;20.90;13.43;;;10.10;98.10;;;;;;5065877;28;20445;-72
2023/09/04 03:13:49;;;;;;;22.38;13.57;;;10.10;98.10;;;;;;5067945;28;20041;-72
2023/09/04 03:16:14;;;;;;;20.52;13.88;;;10.10;98.10;;;;;;5062940;28;20199;-72
2023/09/04 03:18:40;;;;;;;23.52;13.80;;;10.10;98.10;;;;;;5066992;28;20044;-72
2023/09/04 03:21:05;;;;;;;24.30;14.45;;;10.10;98.20;;;;;;5060733;28;20477;-72
2023/09/04 03:23:32;;;;;;;22.60;13.82;;;10.10;98.20;;;;;;5069482;28;20032;-71
2023/09/04 03:25:58;;;;;;;21.52;14.25;;;10.00;98.20;;;;;;5066874;28;20047;-72
2023/09/04 03:28:23;;;;;;;25.85;15.80;;;10.00;98.30;;;;;;5068168;28;20036;-72
2023/09/04 03:30:50;;;;;;;27.40;14.40;;;10.10;98.30;;;;;;5063531;28;20064;-72
2023/09/04 03:33:15;;;;;;;27.67;13.77;;;10.00;98.40;;;;;;5063574;28;20025;-71
2023/09/04 03:35:41;;;;;;;28.85;15.13;;;10.00;98.30;;;;;;5064944;28;20064;-72
2023/09/04 03:38:06;;;;;;;25.33;14.45;;;10.00;98.30;;;;;;5068420;28;20480;-74
2023/09/04 03:40:32;;;;;;;25.58;15.25;;;10.00;98.30;;;;;;5063732;28;20404;-71
2023/09/04 03:42:57;;;;;;;26.15;13.95;;;10.00;98.40;;;;;;5059094;28;20085;-71
2023/09/04 03:45:23;;;;;;;27.60;15.40;;;10.00;98.20;;;;;;5064512;28;20064;-72
2023/09/04 03:47:49;;;;;;;25.67;14.80;;;10.00;98.30;;;;;;5065790;28;20043;-71
2023/09/04 03:50:15;;;;;;;25.00;14.68;;;10.00;98.30;;;;;;5068269;28;20115;-71
2023/09/04 03:52:41;;;;;;;25.48;14.23;;;10.10;98.40;;;;;;5065811;28;20063;-72
2023/09/04 03:55:11;;;;;;;27.00;15.55;;;10.00;98.30;;;;;;5069025;28;20060;-72
2023/09/04 03:57:37;;;;;;;27.83;15.35;;;10.00;98.40;;;;;;5057009;28;20426;-72
2023/09/04 04:00:14;;;;;;;25.92;14.88;;;10.00;98.40;;;;;;5061082;28;20119;-73
2023/09/04 04:02:41;;;;;;;29.20;15.80;;;10.00;98.50;;;;;;5066339;28;20085;-73
2023/09/04 04:05:06;;;;;;;30.15;16.83;;;10.00;98.40;;;;;;5067953;28;20477;-72
2023/09/04 04:07:32;;;;;;;27.42;15.95;;;10.00;98.50;;;;;;5065508;28;20036;-72
2023/09/04 04:09:57;;;;;;;34.88;16.83;;;9.90;98.50;;;;;;5067793;28;20041;-72
2023/09/04 04:12:24;;;;;;;29.55;15.05;;;10.00;98.50;;;;;;5061777;28;20024;-71
2023/09/04 04:14:53;;;;;;;25.60;15.15;;;9.90;98.50;;;;;;5055443;28;20025;-72
2023/09/04 04:17:19;;;;;;;30.00;15.82;;;9.90;98.40;;;;;;5065040;28;20036;-72
2023/09/04 04:19:44;;;;;;;31.40;15.27;;;9.90;98.60;;;;;;5069058;28;20488;-71
2023/09/04 04:22:09;;;;;;;27.65;15.55;;;9.90;98.50;;;;;;5066979;28;20495;-72
2023/09/04 04:24:36;;;;;;;31.45;16.17;;;9.90;98.60;;;;;;5064217;28;20041;-71
2023/09/04 04:27:01;;;;;;;31.65;17.13;;;9.90;98.60;;;;;;5069637;28;20064;-67
2023/09/04 04:29:27;;;;;;;33.35;18.67;;;9.80;98.50;;;;;;5064228;28;20124;-68
2023/09/04 04:31:53;;;;;;;29.42;16.88;;;9.90;98.50;;;;;;5061643;28;20025;-67
2023/09/04 04:34:18;;;;;;;31.27;17.52;;;9.90;98.60;;;;;;5066690;28;20082;-67
2023/09/04 04:36:44;;;;;;;31.70;17.98;;;9.90;98.70;;;;;;5062495;28;20078;-69
2023/09/04 04:39:09;;;;;;;35.58;18.42;;;9.90;98.70;;;;;;5065577;28;20060;-68
2023/09/04 04:41:35;;;;;;;32.95;18.55;;;9.80;98.70;;;;;;5066056;28;20032;-67
2023/09/04 04:44:00;;;;;;;33.28;18.70;;;9.80;98.60;;;;;;5062443;28;20025;-68
2023/09/04 04:46:26;;;;;;;34.10;17.50;;;9.80;98.60;;;;;;5064918;28;20035;-68
2023/09/04 04:48:52;;;;;;;33.80;18.40;;;9.80;98.70;;;;;;5067023;28;20495;-68
2023/09/04 04:51:17;;;;;;;35.28;17.02;;;9.80;98.70;;;;;;5066783;28;20069;-68
2023/09/04 04:53:43;;;;;;;32.10;18.95;;;9.80;98.70;;;;;;5065853;28;20024;-68
2023/09/04 04:56:08;;;;;;;35.75;18.42;;;9.80;98.70;;;;;;5062100;28;20091;-68
2023/09/04 04:58:34;;;;;;;33.20;18.73;;;9.80;98.70;;;;;;5067666;28;20028;-68
2023/09/04 05:00:59;;;;;;;28.58;17.17;;;9.80;98.70;;;;;;5064562;28;20040;-68
2023/09/04 05:03:25;;;;;;;31.88;18.40;;;9.90;98.70;;;;;;5067228;28;20044;-67
2023/09/04 05:05:50;;;;;;;37.08;18.77;;;9.90;98.80;;;;;;5065935;28;20437;-67
2023/09/04 05:08:15;;;;;;;39.40;19.58;;;10.00;98.90;;;;;;5064510;28;20240;-68
2023/09/04 05:10:41;;;;;;;34.80;19.88;;;10.00;98.90;;;;;;5065714;28;20043;-69
2023/09/04 05:13:06;;;;;;;36.45;19.13;;;10.10;99.00;;;;;;5064916;28;20068;-69
2023/09/04 05:15:32;;;;;;;38.25;19.05;;;10.10;99.00;;;;;;5068531;28;20091;-68
2023/09/04 05:17:57;;;;;;;40.22;21.30;;;10.10;99.00;;;;;;5069887;28;20072;-67
2023/09/04 05:20:23;;;;;;;35.97;19.63;;;10.20;99.10;;;;;;5071347;28;20033;-67
2023/09/04 05:22:48;;;;;;;42.65;21.85;;;10.40;99.40;;;;;;5073867;28;20059;-67
2023/09/04 05:25:14;;;;;;;37.78;20.67;;;10.40;99.20;;;;;;5070053;28;20037;-68
2023/09/04 05:27:39;;;;;;;38.75;21.02;;;10.50;99.30;;;;;;5067350;28;20485;-67
2023/09/04 05:30:05;;;;;;;38.17;19.15;;;10.60;99.40;;;;;;5072502;28;20033;-67
2023/09/04 05:32:31;;;;;;;40.38;20.15;;;10.70;99.40;;;;;;5061071;28;20025;-67
2023/09/04 05:34:56;;;;;;;38.50;20.17;;;10.80;99.50;;;;;;5070858;28;20111;-67
2023/09/04 05:37:22;;;;;;;44.13;20.95;;;10.90;99.60;;;;;;5071686;28;20028;-67
2023/09/04 05:39:48;;;;;;;40.33;20.05;;;10.90;99.40;;;;;;5069736;28;20039;-68
2023/09/04 05:42:13;;;;;;;39.45;19.70;;;11.10;99.70;;;;;;5071072;28;20461;-67
2023/09/04 05:44:39;;;;;;;48.22;21.60;;;11.10;99.60;;;;;;5069341;28;20392;-67
2023/09/04 05:47:04;;;;;;;40.75;20.48;;;11.20;99.70;;;;;;5066226;28;20029;-67
2023/09/04 05:49:30;;;;;;;39.05;20.45;;;11.30;99.70;;;;;;5062825;28;20479;-67
2023/09/04 05:51:55;;;;;;;37.97;18.30;;;11.40;99.70;;;;;;5069206;28;20032;-68
2023/09/04 05:54:23;;;;;;;36.22;18.88;;;11.50;99.70;;;;;;5065510;28;21399;-68
2023/09/04 05:56:48;;;;;;;39.63;18.77;;;11.50;99.70;;;;;;5063758;28;20111;-67
2023/09/04 05:59:14;;;;;;;35.35;19.40;;;11.50;99.60;;;;;;5067189;28;20104;-67
2023/09/04 06:01:39;;;;;;;40.38;20.38;;;11.70;99.80;;;;;;5068499;28;20029;-67
2023/09/04 06:04:05;;;;;;;42.45;20.85;;;11.90;99.90;;;;;;5070537;28;20384;-67
2023/09/04 06:06:31;;;;;;;39.97;20.65;;;12.00;99.80;;;;;;5064535;28;20078;-69
2023/09/04 06:08:56;;;;;;;45.60;21.35;;;12.10;99.90;;;;;;5065262;28;20044;-67
2023/09/04 06:11:22;;;;;;;44.10;21.85;;;12.30;99.90;;;;;;5070606;28;20108;-67
2023/09/04 06:13:48;;;;;;;46.00;23.95;;;12.60;99.90;;;;;;5069400;28;20056;-68
2023/09/04 06:16:17;;;;;;;51.55;23.38;;;12.70;99.80;;;;;;5069428;28;20025;-67
2023/09/04 06:18:42;;;;;;;47.67;25.40;;;12.80;99.80;;;;;;5065614;28;20025;-67
2023/09/04 06:21:08;;;;;;;47.53;23.73;;;12.80;99.70;;;;;;5072384;28;20389;-68
2023/09/04 06:23:34;;;;;;;42.95;22.20;;;13.00;99.80;;;;;;5067798;28;20115;-68
2023/09/04 06:26:02;;;;;;;46.03;23.30;;;13.10;99.70;;;;;;5067524;28;20182;-67
2023/09/04 06:28:28;;;;;;;42.70;22.48;;;13.10;99.50;;;;;;5070735;28;20167;-68
2023/09/04 06:30:55;;;;;;;42.70;21.98;;;13.10;99.40;;;;;;5069481;28;20108;-69
2023/09/04 06:33:21;;;;;;;49.00;22.88;;;13.30;99.40;;;;;;5064853;28;20077;-68
2023/09/04 06:35:47;;;;;;;36.22;20.52;;;13.40;99.30;;;;;;5063109;28;20120;-69
2023/09/04 06:38:12;;;;;;;46.22;22.67;;;13.50;99.20;;;;;;5069087;28;20028;-68
2023/09/04 06:40:38;;;;;;;41.40;21.00;;;13.50;99.00;;;;;;5072014;28;20067;-68
2023/09/04 06:43:03;;;;;;;40.22;20.20;;;13.60;98.90;;;;;;5070778;28;20035;-69
2023/09/04 06:45:29;;;;;;;37.53;19.40;;;13.80;98.60;;;;;;5070939;28;20028;-67
2023/09/04 06:47:54;;;;;;;33.47;18.55;;;13.80;98.50;;;;;;5063299;28;20151;-68
2023/09/04 06:50:20;;;;;;;37.83;18.25;;;13.90;98.30;;;;;;5053134;28;20512;-68
2023/09/04 06:52:45;;;;;;;30.38;17.80;;;14.00;98.20;;;;;;5065598;28;20033;-67
2023/09/04 06:55:11;;;;;;;33.97;19.92;;;14.10;98.20;;;;;;5072241;28;20047;-68
2023/09/04 06:57:36;;;;;;;34.25;17.98;;;14.20;97.90;;;;;;5073819;28;20024;-68
2023/09/04 07:00:07;;;;;;;31.95;16.80;;;14.30;97.50;;;;;;5072730;28;20036;-67
2023/09/04 07:02:33;;;;;;;30.13;16.70;;;14.50;97.20;;;;;;5067760;28;21572;-68
2023/09/04 07:04:58;;;;;;;26.20;15.45;;;14.50;97.00;;;;;;5081245;28;20036;-68
2023/09/04 07:07:24;;;;;;;19.67;12.38;;;14.60;96.70;;;;;;5070148;28;20071;-67
2023/09/04 07:09:49;;;;;;;21.42;12.65;;;14.70;96.30;;;;;;5067942;28;20032;-68
2023/09/04 07:12:15;;;;;;;19.85;11.10;;;14.80;96.30;;;;;;5058805;28;20032;-70
2023/09/04 07:14:40;;;;;;;16.02;10.63;;;14.90;96.00;;;;;;5061539;28;20365;-68
2023/09/04 07:17:06;;;;;;;15.27;10.02;;;15.00;95.90;;;;;;5060642;28;20805;-68
2023/09/04 07:19:31;;;;;;;12.57;8.30;;;14.90;95.80;;;;;;5061439;28;20067;-68
2023/09/04 07:21:57;;;;;;;12.75;8.02;;;14.90;95.80;;;;;;5069712;28;20040;-68
2023/09/04 07:24:22;;;;;;;9.57;6.43;;;15.00;95.10;;;;;;5069393;28;20072;-67
2023/09/04 07:26:48;;;;;;;12.77;6.30;;;15.10;95.20;;;;;;5071094;28;20047;-67
2023/09/04 07:29:13;;;;;;;7.78;5.25;;;15.20;94.60;;;;;;5062629;28;20537;-68
2023/09/04 07:31:39;;;;;;;7.60;5.18;;;15.40;94.50;;;;;;5066783;28;20626;-68
2023/09/04 07:34:04;;;;;;;9.55;5.15;;;15.40;93.80;;;;;;5067093;28;20085;-67
2023/09/04 07:36:29;;;;;;;8.70;4.50;;;15.60;93.40;;;;;;5065662;28;20029;-68
2023/09/04 07:38:55;;;;;;;6.10;4.43;;;15.60;93.40;;;;;;5068636;28;20107;-68
2023/09/04 07:41:20;;;;;;;8.85;4.30;;;15.60;93.20;;;;;;5068840;28;20032;-67
2023/09/04 07:43:46;;;;;;;8.18;4.15;;;15.80;93.50;;;;;;5060322;28;20111;-68
2023/09/04 07:46:11;;;;;;;6.90;3.90;;;15.80;93.30;;;;;;5068505;28;20029;-68
2023/09/04 07:48:37;;;;;;;5.40;3.50;;;15.90;93.20;;;;;;5065937;28;20033;-68
2023/09/04 07:51:05;;;;;;;4.53;3.10;;;16.20;92.00;;;;;;5065028;28;20031;-68
2023/09/04 07:53:30;;;;;;;4.97;3.65;;;16.40;91.50;;;;;;5066392;28;20494;-68
2023/09/04 07:55:56;;;;;;;10.27;3.42;;;16.60;91.50;;;;;;5070934;28;20060;-68
2023/09/04 07:58:21;;;;;;;6.20;3.10;;;16.70;91.70;;;;;;5065500;28;20035;-68
2023/09/04 08:00:49;;;;;;;4.18;2.60;;;16.70;91.30;;;;;;5062770;28;20033;-68
2023/09/04 08:03:15;;;;;;;3.67;2.50;;;16.90;90.80;;;;;;5064450;28;20630;-69
2023/09/04 08:05:40;;;;;;;4.82;2.60;;;17.20;89.80;;;;;;5070306;28;20419;-68
2023/09/04 08:08:10;;;;;;;3.88;2.50;;;17.20;89.20;;;;;;5069602;28;20511;-68
2023/09/04 08:10:44;;;;;;;5.20;2.63;;;17.50;88.70;;;;;;5069047;28;20029;-69
2023/09/04 08:13:11;;;;;;;5.20;2.15;;;17.60;88.90;;;;;;5064256;28;20020;-68
2023/09/04 08:15:37;;;;;;;9.20;2.90;;;17.80;87.50;;;;;;5067717;28;20461;-68
2023/09/04 08:18:03;;;;;;;3.15;2.08;;;18.00;87.90;;;;;;5062833;28;20075;-68
2023/09/04 08:20:28;;;;;;;5.03;2.40;;;18.10;87.10;;;;;;5064778;28;20032;-68
2023/09/04 08:22:54;;;;;;;6.80;2.08;;;18.30;86.60;;;;;;5069963;28;20028;-68
2023/09/04 08:25:19;;;;;;;3.83;1.90;;;18.50;85.70;;;;;;5064751;28;20056;-68
2023/09/04 08:27:45;;;;;;;2.58;1.88;;;18.50;82.80;;;;;;5064589;28;20080;-69
2023/09/04 08:30:11;;;;;;;3.35;1.77;;;18.80;83.70;;;;;;5059421;28;20032;-68
2023/09/04 08:32:36;;;;;;;2.55;1.50;;;18.80;82.10;;;;;;5061400;28;20107;-68
2023/09/04 08:35:02;;;;;;;4.50;1.80;;;19.00;83.60;;;;;;5064320;28;20029;-68
2023/09/04 08:37:28;;;;;;;5.65;1.70;;;19.20;82.90;;;;;;5065443;28;20028;-68
2023/09/04 08:39:53;;;;;;;3.30;1.45;;;19.20;79.70;;;;;;5067292;28;20036;-68
2023/09/04 08:42:19;;;;;;;5.72;2.08;;;19.40;80.90;;;;;;5069102;28;20071;-68
2023/09/04 08:44:46;;;;;;;4.20;2.08;;;19.60;79.60;;;;;;5065082;28;20037;-68
2023/09/04 08:47:14;;;;;;;4.25;2.28;;;19.80;79.30;;;;;;5066662;28;20194;-67
2023/09/04 08:49:41;;;;;;;5.05;1.90;;;20.00;79.80;;;;;;5069676;28;20407;-68
2023/09/04 08:52:08;;;;;;;4.97;2.60;;;20.00;78.70;;;;;;5074258;28;20460;-69
2023/09/04 08:54:33;;;;;;;5.25;2.17;;;20.20;78.10;;;;;;5067890;28;20025;-69
2023/09/04 08:56:59;;;;;;;4.18;2.10;;;20.50;79.40;;;;;;5071984;28;20024;-69
2023/09/04 08:59:25;;;;;;;3.58;1.88;;;20.50;76.70;;;;;;5063461;28;20086;-68
2023/09/04 09:01:54;;;;;;;2.97;1.45;;;20.50;76.20;;;;;;5066152;28;20035;-68
2023/09/04 09:04:21;;;;;;;4.32;1.90;;;20.60;77.50;;;;;;5067081;28;20067;-68
2023/09/04 09:06:51;;;;;;;3.50;1.90;;;20.70;76.40;;;;;;5069302;28;20032;-68
2023/09/04 09:09:20;;;;;;;4.35;2.22;;;20.90;76.50;;;;;;5074294;28;20042;-69
2023/09/04 09:11:46;;;;;;;4.22;2.17;;;21.00;75.50;;;;;;5072726;28;20024;-68
2023/09/04 09:14:15;;;;;;;4.03;2.15;;;20.80;75.60;;;;;;5069003;28;20090;-68
2023/09/04 09:16:41;;;;;;;4.13;2.10;;;21.00;74.70;;;;;;5070571;28;20380;-69
2023/09/04 09:19:09;;;;;;;2.65;1.40;;;20.90;75.40;;;;;;5068902;28;20037;-69
2023/09/04 09:21:34;;;;;;;5.82;1.52;;;20.90;74.60;;;;;;5068142;28;20068;-67
2023/09/04 09:24:07;;;;;;;3.10;1.33;;;21.10;74.30;;;;;;5073311;28;20021;-67
2023/09/04 09:26:33;;;;;;;4.38;1.20;;;21.30;73.30;;;;;;5072746;28;20116;-68
2023/09/04 09:29:02;;;;;;;1.95;1.27;;;21.50;72.30;;;;;;5070757;28;20103;-68
2023/09/04 09:31:29;;;;;;;1.90;1.13;;;21.20;71.70;;;;;;5069187;28;20037;-68
2023/09/04 09:33:55;;;;;;;2.83;1.52;;;21.40;71.80;;;;;;5066280;28;20525;-69
2023/09/04 09:36:21;;;;;;;2.45;1.40;;;21.40;71.70;;;;;;5066414;28;20055;-69
2023/09/04 09:38:46;;;;;;;2.13;1.38;;;21.50;71.00;;;;;;5071465;28;20524;-69
2023/09/04 09:41:15;;;;;;;3.60;1.60;;;21.60;70.80;;;;;;5071093;28;20071;-68
2023/09/04 09:43:41;;;;;;;2.65;1.30;;;22.00;71.60;;;;;;5065352;28;20511;-69
2023/09/04 09:46:08;;;;;;;2.05;1.20;;;22.00;70.90;;;;;;5066025;28;20386;-69
2023/09/04 09:48:36;;;;;;;2.33;1.42;;;22.20;68.50;;;;;;5068792;28;20427;-68
2023/09/04 09:51:06;;;;;;;1.92;1.27;;;22.10;69.20;;;;;;5068741;28;20049;-68
2023/09/04 09:53:49;;;;;;;3.67;1.15;;;22.00;68.80;;;;;;5078433;28;20028;-68
2023/09/04 09:56:16;;;;;;;3.08;1.20;;;22.30;69.70;;;;;;5067721;28;20024;-69
2023/09/04 09:58:43;;;;;;;3.40;1.50;;;22.30;67.70;;;;;;5059211;28;20017;-68
2023/09/04 10:01:09;;;;;;;2.55;1.48;;;22.50;68.20;;;;;;5066236;28;20056;-69
2023/09/04 10:03:36;;;;;;;2.05;1.40;;;22.50;67.90;;;;;;5069943;28;20021;-68
2023/09/04 10:06:06;;;;;;;2.85;1.50;;;22.60;67.40;;;;;;5071347;28;20040;-68
2023/09/04 10:08:41;;;;;;;3.38;1.40;;;22.60;68.40;;;;;;5066018;28;20079;-69
2023/09/04 10:11:10;;;;;;;4.45;1.60;;;22.60;67.20;;;;;;5067526;28;20127;-69
2023/09/04 10:14:02;;;;;;;3.67;1.60;;;22.90;68.70;;;;;;5067975;28;20553;-68
2023/09/04 10:16:42;;;;;;;2.90;1.30;;;22.90;68.00;;;;;;5065417;28;20780;-69
2023/09/04 10:19:11;;;;;;;3.15;1.52;;;23.10;67.40;;;;;;5065402;28;20028;-69
2023/09/04 10:21:42;;;;;;;2.75;1.50;;;23.30;66.90;;;;;;5068286;28;20036;-69
2023/09/04 10:24:13;;;;;;;1.77;1.10;;;23.20;66.50;;;;;;5070723;28;20033;-69
2023/09/04 10:26:54;;;;;;;2.30;1.20;;;23.00;63.90;;;;;;5069759;28;20016;-68
2023/09/04 10:29:24;;;;;;;2.80;1.40;;;23.40;66.70;;;;;;5060455;28;20025;-69
2023/09/04 10:31:50;;;;;;;5.10;1.20;;;23.70;64.90;;;;;;5068142;28;20037;-68
2023/09/04 10:34:16;;;;;;;3.22;0.70;;;24.00;62.50;;;;;;5069390;28;20459;-68
2023/09/04 10:36:42;;;;;;;2.03;0.90;;;23.90;61.30;;;;;;5065868;28;20029;-69
2023/09/04 10:39:08;;;;;;;1.65;0.80;;;23.80;62.10;;;;;;5072781;28;20029;-69
2023/09/04 10:41:35;;;;;;;1.88;0.90;;;24.20;64.00;;;;;;5067380;28;20094;-68
2023/09/04 10:44:01;;;;;;;1.98;0.93;;;24.10;59.40;;;;;;5071517;28;20036;-68
2023/09/04 10:46:27;;;;;;;3.17;1.10;;;24.40;62.50;;;;;;5063586;28;20997;-70
2023/09/04 10:48:53;;;;;;;1.85;0.80;;;24.20;60.00;;;;;;5069748;28;20492;-69
2023/09/04 10:51:32;;;;;;;1.00;0.88;;;24.10;61.50;;;;;;5068239;28;20108;-70
2023/09/04 10:54:22;;;;;;;1.58;0.80;;;24.30;60.00;;;;;;5075600;28;20028;-70
2023/09/04 10:56:54;;;;;;;1.13;0.65;;;24.50;63.10;;;;;;5065611;28;20056;-69
2023/09/04 10:59:20;;;;;;;2.10;0.80;;;24.80;57.90;;;;;;5065903;28;20097;-69
2023/09/04 11:01:46;;;;;;;1.20;0.63;;;24.50;60.40;;;;;;5070344;28;20484;-70
2023/09/04 11:04:43;;;;;;;3.53;0.93;;;24.80;59.80;;;;;;5068718;28;20365;-68
2023/09/04 11:07:20;;;;;;;3.00;0.80;;;24.80;57.00;;;;;;5064226;28;20016;-69
2023/09/04 11:09:47;;;;;;;3.35;0.60;;;25.00;58.10;;;;;;5065841;28;20021;-68
2023/09/04 11:12:19;;;;;;;1.88;0.85;;;25.20;59.70;;;;;;5071554;28;20036;-68
2023/09/04 11:14:46;;;;;;;2.22;0.80;;;25.30;57.70;;;;;;5060232;28;20024;-69
2023/09/04 11:17:14;;;;;;;2.40;0.77;;;24.90;56.60;;;;;;5064993;28;20020;-69
2023/09/04 11:19:40;;;;;;;2.47;1.00;;;25.40;57.30;;;;;;5063335;28;20519;-70
2023/09/04 11:22:13;;;;;;;2.53;0.90;;;25.20;56.70;;;;;;5068149;28;20036;-69
2023/09/04 11:24:39;;;;;;;2.28;0.80;;;25.70;55.20;;;;;;5063788;28;20045;-69
2023/09/04 11:27:04;;;;;;;2.10;0.90;;;25.90;56.70;;;;;;5069053;28;20052;-70
2023/09/04 11:29:32;;;;;;;0.90;0.80;;;25.90;55.90;;;;;;5063119;28;20043;-68
2023/09/04 11:31:58;;;;;;;2.63;0.90;;;26.00;55.10;;;;;;5058241;28;20086;-69
2023/09/04 11:34:25;;;;;;;2.38;0.90;;;26.30;55.60;;;;;;5053814;28;20405;-70
2023/09/04 11:36:51;;;;;;;2.10;1.02;;;26.10;55.20;;;;;;5058619;28;20020;-68
2023/09/04 11:39:16;;;;;;;2.50;1.00;;;26.00;55.90;;;;;;5066410;28;20048;-69
2023/09/04 11:41:42;;;;;;;1.75;1.02;;;25.70;55.30;;;;;;5067553;28;20032;-70
2023/09/04 11:44:07;;;;;;;1.40;0.93;;;26.10;54.80;;;;;;5067235;28;20107;-70
2023/09/04 11:46:34;;;;;;;2.03;1.00;;;26.30;56.40;;;;;;5068533;28;20039;-69
2023/09/04 11:49:02;;;;;;;1.45;0.93;;;26.10;53.90;;;;;;5060692;28;20032;-68
2023/09/04 11:51:30;;;;;;;2.03;0.95;;;26.90;54.90;;;;;;5064654;28;20560;-70
2023/09/04 11:53:56;;;;;;;2.55;1.02;;;27.40;55.20;;;;;;5064867;28;20074;-70
2023/09/04 11:56:21;;;;;;;1.95;0.95;;;27.00;52.70;;;;;;5068355;28;20032;-71
2023/09/04 11:58:47;;;;;;;2.05;1.20;;;27.20;52.10;;;;;;5064105;28;20017;-72
2023/09/04 12:01:12;;;;;;;2.35;0.88;;;27.40;50.90;;;;;;5062269;28;22752;-70
2023/09/04 12:03:38;;;;;;;1.20;0.88;;;27.20;52.20;;;;;;5059158;28;20029;-69
2023/09/04 12:06:04;;;;;;;2.47;0.88;;;27.30;53.20;;;;;;5062391;28;20028;-69
2023/09/04 12:08:29;;;;;;;2.35;1.00;;;27.00;52.50;;;;;;5065920;28;20056;-70
2023/09/04 12:10:55;;;;;;;2.35;0.90;;;27.30;52.40;;;;;;5064821;28;20495;-69
2023/09/04 12:13:22;;;;;;;2.35;1.00;;;26.70;50.90;;;;;;5070514;28;20027;-70
2023/09/04 12:15:48;;;;;;;1.33;0.90;;;26.80;51.60;;;;;;5062869;28;20025;-70
2023/09/04 12:18:14;;;;;;;1.10;0.90;;;27.50;50.60;;;;;;5063469;28;20033;-69
2023/09/04 12:20:42;;;;;;;4.68;0.98;;;27.20;51.30;;;;;;5066948;28;20090;-69
2023/09/04 12:23:08;;;;;;;3.17;1.10;;;27.40;51.60;;;;;;5062435;28;20032;-70
2023/09/04 12:25:36;;;;;;;1.63;0.95;;;27.20;50.40;;;;;;5069292;28;20393;-70
2023/09/04 12:28:05;;;;;;;1.63;0.82;;;26.90;52.50;;;;;;5066805;28;20062;-71
2023/09/04 12:30:34;;;;;;;1.58;0.63;;;27.90;50.20;;;;;;5063816;28;20036;-70
2023/09/04 12:33:00;;;;;;;1.45;0.70;;;28.10;48.70;;;;;;5061565;28;20024;-69
2023/09/04 12:35:25;;;;;;;0.95;0.60;;;28.70;47.90;;;;;;5064492;28;20025;-69